createdAt,value
2023-05-24T00:01:25.961Z,18.31
2023-05-24T00:03:27.026Z,18.30
2023-05-24T00:04:53.113Z,18.21
2023-05-24T00:06:17.235Z,18.14
2023-05-24T00:07:38.757Z,18.05
2023-05-24T00:09:14.581Z,17.91
2023-05-24T00:10:36.846Z,17.88
2023-05-24T00:11:58.387Z,17.80
2023-05-24T00:13:25.190Z,17.71
2023-05-24T00:14:46.699Z,17.61
2023-05-24T00:16:11.840Z,17.60
2023-05-24T00:17:34.858Z,17.54
2023-05-24T00:18:59.345Z,17.45
2023-05-24T00:20:21.904Z,17.42
2023-05-24T00:21:43.208Z,17.35
2023-05-24T00:23:08.103Z,17.30
2023-05-24T00:24:29.358Z,17.19
2023-05-24T00:28:50.382Z,16.97
2023-05-24T00:30:23.566Z,16.94
2023-05-24T00:35:09.827Z,16.75
2023-05-24T00:36:35.420Z,16.66
2023-05-24T00:38:18.760Z,16.54
2023-05-24T00:39:42.075Z,16.56
2023-05-24T00:41:10.176Z,16.51
2023-05-24T00:42:31.505Z,16.47
2023-05-24T00:44:00.847Z,16.40
2023-05-24T00:45:24.278Z,16.31
2023-05-24T00:46:50.991Z,16.30
2023-05-24T00:48:12.767Z,16.27
2023-05-24T00:49:38.482Z,16.22
2023-05-24T00:51:00.087Z,16.18
2023-05-24T00:52:23.010Z,16.16
2023-05-24T00:53:46.376Z,16.12
2023-05-24T00:55:09.758Z,16.08
2023-05-24T00:56:34.238Z,16.06
2023-05-24T00:57:59.938Z,16.01
2023-05-24T00:59:24.611Z,15.93
2023-05-24T01:00:49.984Z,15.94
2023-05-24T01:02:12.452Z,15.90
2023-05-24T01:03:35.860Z,15.88
2023-05-24T01:05:00.219Z,15.86
2023-05-24T01:06:25.214Z,15.83
2023-05-24T01:07:58.658Z,15.73
2023-05-24T01:09:31.489Z,15.78
2023-05-24T01:10:59.220Z,15.74
2023-05-24T01:12:47.070Z,15.73
2023-05-24T01:14:20.092Z,15.60
2023-05-24T01:15:53.574Z,15.66
2023-05-24T01:17:21.604Z,15.62
2023-05-24T01:18:51.416Z,15.61
2023-05-24T01:20:17.345Z,15.58
2023-05-24T01:21:56.353Z,15.54
2023-05-24T01:23:42.948Z,15.48
2023-05-24T01:25:07.775Z,15.45
2023-05-24T01:26:41.490Z,15.40
2023-05-24T01:28:09.712Z,15.39
2023-05-24T01:29:35.938Z,15.34
2023-05-24T01:30:57.337Z,15.32
2023-05-24T01:32:20.591Z,15.23
2023-05-24T01:33:43.051Z,15.22
2023-05-24T01:35:06.088Z,15.14
2023-05-24T01:36:28.239Z,15.14
2023-05-24T01:37:49.479Z,15.08
2023-05-24T01:39:12.023Z,15.05
2023-05-24T01:40:34.051Z,15.02
2023-05-24T01:42:06.789Z,14.96
2023-05-24T01:43:34.645Z,14.94
2023-05-24T01:45:04.806Z,14.93
2023-05-24T01:46:36.703Z,14.92
2023-05-24T01:48:03.632Z,14.82
2023-05-24T01:49:31.706Z,14.85
2023-05-24T01:51:00.516Z,14.83
2023-05-24T01:52:28.865Z,14.82
2023-05-24T01:53:52.715Z,14.80
2023-05-24T01:55:18.863Z,14.78
2023-05-24T01:56:44.977Z,14.72
2023-05-24T01:58:09.466Z,14.73
2023-05-24T01:59:34.821Z,14.71
2023-05-24T02:00:56.657Z,14.67
2023-05-24T02:02:20.506Z,14.67
2023-05-24T02:03:52.330Z,14.60
2023-05-24T02:05:18.588Z,14.61
2023-05-24T02:19:17.351Z,14.09
2023-05-24T02:20:40.060Z,14.07
2023-05-24T02:22:01.702Z,14.07
2023-05-24T02:23:25.645Z,14.06
2023-05-24T02:24:54.068Z,14.01
2023-05-24T02:26:17.896Z,13.98
2023-05-24T02:27:39.285Z,13.98
2023-05-24T02:29:01.551Z,13.98
2023-05-24T02:30:22.770Z,14.01
2023-05-24T02:31:45.271Z,13.99
2023-05-24T02:38:46.000Z,13.90
2023-05-24T02:40:08.937Z,13.79
2023-05-24T02:41:31.570Z,13.80
2023-05-24T02:42:53.896Z,13.86
2023-05-24T02:44:15.308Z,13.84
2023-05-24T02:45:37.956Z,13.74
2023-05-24T02:46:59.284Z,13.71
2023-05-24T02:48:21.887Z,13.76
2023-05-24T02:49:43.431Z,13.75
2023-05-24T02:51:06.202Z,13.79
2023-05-24T02:52:27.363Z,13.74
2023-05-24T02:53:51.411Z,13.68
2023-05-24T02:55:14.408Z,13.68
2023-05-24T02:56:37.735Z,13.75
2023-05-24T02:57:59.400Z,13.80
2023-05-24T02:59:21.790Z,13.75
2023-05-24T03:00:43.998Z,13.79
2023-05-24T03:02:06.947Z,13.77
2023-05-24T03:03:30.953Z,13.67
2023-05-24T03:04:53.281Z,13.75
2023-05-24T03:06:16.105Z,13.66
2023-05-24T03:07:37.616Z,13.74
2023-05-24T03:09:02.826Z,13.76
2023-05-24T03:10:24.438Z,13.68
2023-05-24T03:11:46.982Z,13.68
2023-05-24T03:13:09.686Z,13.70
2023-05-24T03:14:33.271Z,13.70
2023-05-24T03:15:55.297Z,13.77
2023-05-24T03:17:20.017Z,13.80
2023-05-24T03:18:41.657Z,13.72
2023-05-24T03:20:05.973Z,13.78
2023-05-24T03:21:27.918Z,13.76
2023-05-24T03:22:52.567Z,13.73
2023-05-24T03:24:15.391Z,13.82
2023-05-24T03:25:37.718Z,13.77
2023-05-24T03:26:59.923Z,13.76
2023-05-24T03:28:22.526Z,13.73
2023-05-24T03:29:45.209Z,13.83
2023-05-24T03:31:07.459Z,13.83
2023-05-24T03:32:30.130Z,13.81
2023-05-24T03:33:51.654Z,13.83
2023-05-24T03:35:14.086Z,13.82
2023-05-24T03:36:36.730Z,13.82
2023-05-24T03:37:59.083Z,13.84
2023-05-24T03:39:23.924Z,13.86
2023-05-24T03:40:53.229Z,13.83
2023-05-24T03:42:15.571Z,13.85
2023-05-24T03:43:38.692Z,13.89
2023-05-24T03:45:10.992Z,13.93
2023-05-24T03:46:34.079Z,13.96
2023-05-24T03:47:56.580Z,13.98
2023-05-24T03:49:18.790Z,13.98
2023-05-24T03:50:41.022Z,13.99
2023-05-24T03:52:03.583Z,13.95
2023-05-24T03:53:24.873Z,13.98
2023-05-24T03:54:49.503Z,13.97
2023-05-24T03:56:11.418Z,13.98
2023-05-24T03:57:32.444Z,13.99
2023-05-24T03:58:54.726Z,14.02
2023-05-24T04:00:16.576Z,14.04
2023-05-24T04:01:43.389Z,14.06
2023-05-24T04:03:06.941Z,14.07
2023-05-24T04:04:29.881Z,14.06
2023-05-24T04:05:52.834Z,14.07
2023-05-24T04:07:16.534Z,14.12
2023-05-24T04:09:29.239Z,14.14
2023-05-24T04:10:52.080Z,14.09
2023-05-24T04:13:32.257Z,14.01
2023-05-24T04:14:55.430Z,14.12
2023-05-24T04:16:16.798Z,14.13
2023-05-24T04:17:39.734Z,14.13
2023-05-24T04:19:05.985Z,14.13
2023-05-24T04:20:29.602Z,14.22
2023-05-24T04:21:56.007Z,14.22
2023-05-24T04:23:17.573Z,14.22
2023-05-24T04:24:42.259Z,14.26
2023-05-24T04:26:07.707Z,14.22
2023-05-24T04:27:30.353Z,14.22
2023-05-24T04:28:52.923Z,14.30
2023-05-24T04:30:14.400Z,14.30
2023-05-24T04:31:36.787Z,14.29
2023-05-24T04:33:00.253Z,14.34
2023-05-24T04:34:24.028Z,14.33
2023-05-24T04:35:45.808Z,14.31
2023-05-24T04:37:08.977Z,14.34
2023-05-24T04:38:32.527Z,14.37
2023-05-24T04:39:55.194Z,14.41
2023-05-24T04:41:21.718Z,14.45
2023-05-24T04:42:43.777Z,14.42
2023-05-24T04:44:06.396Z,14.49
2023-05-24T04:45:28.205Z,14.48
2023-05-24T04:46:50.815Z,14.54
2023-05-24T04:48:15.988Z,14.57
2023-05-24T04:49:37.967Z,14.62
2023-05-24T04:51:00.655Z,14.62
2023-05-24T04:52:23.050Z,14.67
2023-05-24T04:53:45.209Z,14.75
2023-05-24T04:55:07.078Z,14.77
2023-05-24T04:56:53.203Z,14.73
2023-05-24T04:57:57.304Z,14.83
2023-05-24T04:59:18.922Z,14.86
2023-05-24T05:00:41.244Z,14.89
2023-05-24T05:02:17.574Z,14.84
2023-05-24T05:03:41.229Z,14.89
2023-05-24T05:05:03.719Z,14.90
2023-05-24T05:06:27.129Z,14.95
2023-05-24T05:07:52.173Z,14.96
2023-05-24T05:09:14.977Z,14.94
2023-05-24T05:10:44.855Z,14.99
2023-05-24T05:12:25.440Z,14.99
2023-05-24T05:13:48.439Z,14.99
2023-05-24T05:15:11.521Z,15.01
2023-05-24T05:16:33.096Z,15.09
2023-05-24T05:17:57.524Z,15.11
2023-05-24T05:19:19.901Z,15.16
2023-05-24T05:20:53.849Z,15.21
2023-05-24T05:22:31.277Z,15.29
2023-05-24T05:24:33.427Z,15.36
2023-05-24T05:25:56.678Z,15.42
2023-05-24T05:27:20.669Z,15.43
2023-05-24T05:28:42.847Z,15.38
2023-05-24T05:30:05.289Z,15.38
2023-05-24T05:31:31.089Z,15.42
2023-05-24T05:32:57.310Z,15.36
2023-05-24T05:34:21.360Z,15.39
2023-05-24T05:35:43.465Z,15.27
2023-05-24T05:37:05.989Z,15.30
2023-05-24T05:38:28.142Z,15.29
2023-05-24T05:39:50.321Z,15.28
2023-05-24T05:41:16.528Z,15.21
2023-05-24T05:42:40.965Z,15.12
2023-05-24T05:44:03.710Z,15.15
2023-05-24T05:45:26.914Z,15.15
2023-05-24T05:46:50.026Z,15.05
2023-05-24T05:48:13.161Z,15.09
2023-05-24T05:49:37.670Z,14.99
2023-05-24T05:51:00.656Z,14.96
2023-05-24T05:52:24.167Z,14.94
2023-05-24T05:53:48.266Z,14.97
2023-05-24T05:55:14.910Z,14.90
2023-05-24T05:56:45.354Z,14.98
2023-05-24T05:58:10.636Z,15.12
2023-05-24T05:59:39.126Z,15.35
2023-05-24T06:01:02.520Z,15.43
2023-05-24T06:02:28.805Z,15.75
2023-05-24T06:03:52.402Z,16.04
2023-05-24T06:05:16.081Z,16.38
2023-05-24T06:06:38.590Z,16.64
2023-05-24T06:08:00.876Z,16.87
2023-05-24T06:09:23.453Z,17.07
2023-05-24T06:10:45.945Z,17.12
2023-05-24T06:13:47.012Z,17.39
2023-05-24T06:15:10.591Z,17.50
2023-05-24T06:16:32.902Z,17.48
2023-05-24T06:17:55.570Z,17.50
2023-05-24T06:19:18.462Z,17.48
2023-05-24T06:20:41.133Z,17.50
2023-05-24T06:22:03.785Z,17.52
2023-05-24T06:23:25.866Z,17.63
2023-05-24T06:24:49.303Z,17.70
2023-05-24T06:26:14.391Z,17.77
2023-05-24T06:27:37.080Z,17.76
2023-05-24T06:29:00.620Z,17.80
2023-05-24T06:30:22.723Z,17.79
2023-05-24T06:31:45.088Z,17.81
2023-05-24T06:35:30.122Z,17.99
2023-05-24T06:36:53.155Z,18.35
2023-05-24T06:38:15.671Z,18.81
2023-05-24T06:39:40.903Z,18.98
2023-05-24T06:41:05.622Z,19.11
2023-05-24T06:42:28.691Z,19.30
2023-05-24T06:43:51.632Z,19.55
2023-05-24T06:45:16.725Z,19.66
2023-05-24T06:46:41.970Z,19.86
2023-05-24T06:48:04.727Z,19.85
2023-05-24T06:49:30.538Z,19.94
2023-05-24T06:51:02.614Z,20.12
2023-05-24T06:52:24.989Z,20.20
2023-05-24T06:53:47.812Z,20.23
2023-05-24T06:55:11.040Z,20.29
2023-05-24T06:56:40.008Z,20.47
2023-05-24T06:58:05.433Z,20.54
2023-05-24T06:59:37.839Z,20.59
2023-05-24T07:01:30.723Z,20.67
2023-05-24T07:02:56.669Z,20.73
2023-05-24T07:04:41.376Z,20.74
2023-05-24T07:06:03.769Z,20.69
2023-05-24T07:07:25.760Z,20.64
2023-05-24T07:09:02.319Z,20.54
2023-05-24T07:10:24.545Z,20.49
2023-05-24T07:11:47.291Z,20.49
2023-05-24T07:13:13.656Z,20.44
2023-05-24T07:14:36.486Z,20.46
2023-05-24T07:15:58.847Z,20.42
2023-05-24T07:17:28.208Z,20.40
2023-05-24T07:18:50.838Z,20.32
2023-05-24T07:21:20.203Z,20.34
2023-05-24T07:22:43.344Z,20.17
2023-05-24T07:24:04.655Z,20.19
2023-05-24T07:25:27.832Z,20.12
2023-05-24T07:26:50.337Z,20.09
2023-05-24T07:28:14.387Z,20.15
2023-05-24T07:29:37.000Z,20.12
2023-05-24T07:31:00.735Z,20.08
2023-05-24T07:32:22.950Z,20.07
2023-05-24T07:33:47.047Z,20.15
2023-05-24T07:35:16.003Z,20.06
2023-05-24T07:36:43.916Z,20.01
2023-05-24T07:38:06.157Z,19.91
2023-05-24T07:39:29.820Z,19.79
2023-05-24T07:41:01.913Z,19.72
2023-05-24T07:42:32.495Z,19.70
2023-05-24T07:43:53.819Z,19.68
2023-05-24T07:45:34.696Z,19.69
2023-05-24T07:46:58.638Z,19.88
2023-05-24T07:48:21.159Z,19.91
2023-05-24T07:49:44.572Z,20.05
2023-05-24T07:51:06.910Z,20.11
2023-05-24T07:52:29.911Z,20.15
2023-05-24T07:53:52.099Z,20.27
2023-05-24T07:55:17.562Z,20.21
2023-05-24T07:56:44.645Z,20.30
2023-05-24T07:58:06.642Z,20.25
2023-05-24T07:59:29.642Z,20.20
2023-05-24T08:00:52.617Z,20.22
2023-05-24T08:02:15.882Z,20.23
2023-05-24T08:03:38.434Z,20.26
2023-05-24T08:05:03.993Z,20.26
2023-05-24T08:06:26.721Z,20.34
2023-05-24T08:07:49.162Z,20.58
2023-05-24T08:09:12.505Z,20.85
2023-05-24T08:10:34.836Z,21.08
2023-05-24T08:11:57.255Z,21.28
2023-05-24T08:13:20.086Z,21.30
2023-05-24T08:14:42.378Z,21.34
2023-05-24T08:16:08.667Z,21.44
2023-05-24T08:17:33.030Z,21.67
2023-05-24T08:18:56.196Z,21.89
2023-05-24T08:20:20.428Z,22.11
2023-05-24T08:21:43.911Z,22.30
2023-05-24T08:23:06.372Z,22.73
2023-05-24T08:24:28.474Z,23.14
2023-05-24T08:25:50.037Z,23.40
2023-05-24T08:27:52.577Z,23.69
2023-05-24T08:32:27.098Z,24.31
2023-05-24T08:33:51.777Z,24.42
2023-05-24T08:36:44.773Z,24.76
2023-05-24T08:38:07.667Z,24.96
2023-05-24T08:39:30.128Z,25.18
2023-05-24T08:40:52.701Z,25.39
2023-05-24T08:42:29.384Z,25.62
2023-05-24T08:43:52.933Z,25.82
2023-05-24T08:45:16.644Z,25.88
2023-05-24T08:46:57.580Z,26.15
2023-05-24T08:48:20.794Z,26.57
2023-05-24T08:49:43.538Z,26.80
2023-05-24T08:51:06.852Z,26.82
2023-05-24T08:52:34.442Z,26.94
2023-05-24T08:53:57.074Z,27.08
2023-05-24T08:55:19.363Z,27.23
2023-05-24T08:56:41.952Z,27.33
2023-05-24T08:58:05.474Z,27.38
2023-05-24T08:59:31.245Z,27.47
2023-05-24T09:00:53.480Z,27.68
2023-05-24T09:02:16.697Z,27.97
2023-05-24T09:03:39.860Z,28.27
2023-05-24T09:05:02.805Z,28.54
2023-05-24T09:06:26.681Z,28.68
2023-05-24T09:07:51.444Z,28.83
2023-05-24T09:09:14.679Z,28.74
2023-05-24T09:10:49.233Z,28.56
2023-05-24T09:12:35.415Z,28.71
2023-05-24T09:14:03.499Z,28.84
2023-05-24T09:15:26.435Z,28.91
2023-05-24T09:16:51.120Z,28.95
2023-05-24T09:18:19.552Z,29.07
2023-05-24T09:19:41.262Z,29.04
2023-05-24T09:21:03.547Z,29.13
2023-05-24T09:22:27.726Z,28.90
2023-05-24T09:23:54.045Z,28.69
2023-05-24T09:25:16.453Z,28.77
2023-05-24T09:26:38.655Z,28.90
2023-05-24T09:28:00.640Z,29.19
2023-05-24T09:29:27.296Z,30.34
2023-05-24T09:31:02.801Z,33.26
2023-05-24T09:32:26.996Z,35.51
2023-05-24T09:33:50.681Z,37.38
2023-05-24T09:35:15.468Z,38.24
2023-05-24T09:36:38.424Z,38.47
2023-05-24T09:38:00.484Z,37.65
2023-05-24T09:39:24.610Z,37.10
2023-05-24T09:40:46.967Z,37.21
2023-05-24T09:42:09.631Z,36.61
2023-05-24T09:43:33.084Z,36.00
2023-05-24T09:45:02.114Z,35.16
2023-05-24T09:46:24.180Z,34.55
2023-05-24T09:47:50.223Z,33.95
2023-05-24T09:49:31.404Z,33.32
2023-05-24T09:51:04.383Z,32.64
2023-05-24T09:52:26.581Z,32.17
2023-05-24T09:53:49.775Z,31.73
2023-05-24T09:55:17.815Z,31.29
2023-05-24T09:56:41.920Z,30.84
2023-05-24T09:58:05.520Z,30.51
2023-05-24T09:59:27.831Z,30.19
2023-05-24T10:00:50.069Z,29.93
2023-05-24T10:02:13.708Z,30.71
2023-05-24T10:03:35.896Z,31.18
2023-05-24T10:05:01.718Z,30.73
2023-05-24T10:06:24.321Z,30.29
2023-05-24T10:07:49.376Z,29.91
2023-05-24T10:09:14.237Z,29.54
2023-05-24T10:10:40.169Z,29.11
2023-05-24T10:12:06.448Z,28.74
2023-05-24T10:13:29.168Z,28.43
2023-05-24T10:14:53.497Z,28.15
2023-05-24T10:16:15.924Z,27.86
2023-05-24T10:17:37.163Z,27.57
2023-05-24T10:19:06.054Z,27.24
2023-05-24T10:20:28.548Z,26.92
2023-05-24T10:21:51.517Z,26.61
2023-05-24T10:23:19.855Z,26.38
2023-05-24T10:24:48.222Z,26.19
2023-05-24T10:26:14.021Z,25.99
2023-05-24T10:27:38.409Z,25.81
2023-05-24T10:29:08.290Z,25.55
2023-05-24T10:30:42.571Z,25.34
2023-05-24T10:32:09.556Z,25.15
2023-05-24T10:33:32.569Z,25.05
2023-05-24T10:34:54.903Z,25.03
2023-05-24T10:36:17.829Z,24.98
2023-05-24T10:37:40.379Z,25.04
2023-05-24T10:39:03.696Z,25.17
2023-05-24T10:40:28.396Z,25.27
2023-05-24T10:41:52.229Z,25.38
2023-05-24T10:43:18.152Z,25.39
2023-05-24T10:44:40.691Z,25.32
2023-05-24T10:46:05.123Z,25.28
2023-05-24T10:47:30.286Z,25.20
2023-05-24T10:49:01.282Z,25.07
2023-05-24T10:50:25.395Z,25.01
2023-05-24T10:51:47.378Z,24.97
2023-05-24T10:53:16.599Z,25.03
2023-05-24T10:54:44.732Z,25.11
2023-05-24T10:56:14.890Z,25.24
2023-05-24T10:57:40.068Z,25.32
2023-05-24T10:59:02.483Z,25.34
2023-05-24T11:00:35.676Z,25.24
2023-05-24T11:01:59.415Z,25.18
2023-05-24T11:03:24.886Z,25.07
2023-05-24T11:04:50.588Z,25.03
2023-05-24T11:06:14.927Z,24.98
2023-05-24T11:07:43.260Z,24.99
2023-05-24T11:09:06.287Z,25.03
2023-05-24T11:10:48.797Z,25.13
2023-05-24T11:12:22.095Z,25.23
2023-05-24T11:13:50.729Z,25.31
2023-05-24T11:15:13.494Z,25.28
2023-05-24T11:16:39.454Z,25.27
2023-05-24T11:18:18.332Z,25.21
2023-05-24T11:19:47.642Z,25.22
2023-05-24T11:21:10.526Z,25.19
2023-05-24T11:22:32.739Z,25.18
2023-05-24T11:23:55.230Z,25.16
2023-05-24T11:25:17.618Z,25.03
2023-05-24T11:26:39.282Z,25.03
2023-05-24T11:28:03.271Z,24.94
2023-05-24T11:29:30.246Z,24.92
2023-05-24T11:35:41.325Z,24.89
2023-05-24T11:37:06.298Z,24.88
2023-05-24T11:38:27.675Z,24.74
2023-05-24T11:39:53.294Z,24.65
2023-05-24T11:41:14.665Z,24.53
2023-05-24T11:42:37.754Z,24.41
2023-05-24T11:44:00.632Z,24.31
2023-05-24T11:45:24.611Z,24.22
2023-05-24T11:46:47.496Z,24.16
2023-05-24T11:48:10.011Z,24.11
2023-05-24T11:49:32.485Z,24.11
2023-05-24T11:50:55.243Z,24.15
2023-05-24T11:52:17.992Z,24.17
2023-05-24T11:53:40.578Z,24.22
2023-05-24T11:55:02.686Z,24.32
2023-05-24T11:56:24.259Z,24.31
2023-05-24T11:57:50.495Z,24.43
2023-05-24T11:59:15.749Z,24.52
2023-05-24T12:00:39.457Z,24.61
2023-05-24T12:02:02.176Z,24.67
2023-05-24T12:03:23.361Z,24.74
2023-05-24T12:04:46.300Z,24.73
2023-05-24T12:06:08.380Z,24.68
2023-05-24T12:07:33.185Z,24.62
2023-05-24T12:08:54.914Z,24.61
2023-05-24T12:10:21.521Z,24.60
2023-05-24T12:11:45.557Z,24.56
2023-05-24T12:13:08.660Z,24.56
2023-05-24T12:14:31.423Z,24.57
2023-05-24T12:15:56.757Z,24.61
2023-05-24T12:17:21.774Z,24.69
2023-05-24T12:18:55.126Z,24.77
2023-05-24T12:20:24.988Z,24.82
2023-05-24T12:21:48.058Z,24.86
2023-05-24T12:23:10.239Z,24.85
2023-05-24T12:24:32.745Z,24.87
2023-05-24T12:25:59.508Z,24.90
2023-05-24T12:27:24.653Z,24.97
2023-05-24T12:28:47.309Z,25.04
2023-05-24T12:30:10.320Z,25.11
2023-05-24T12:31:33.728Z,25.17
2023-05-24T12:32:55.873Z,25.25
2023-05-24T12:34:19.160Z,25.37
2023-05-24T12:35:42.820Z,25.53
2023-05-24T12:37:04.693Z,25.72
2023-05-24T12:38:26.733Z,25.90
2023-05-24T12:39:48.332Z,25.99
2023-05-24T12:41:13.649Z,25.99
2023-05-24T12:42:38.671Z,25.99
2023-05-24T12:44:00.621Z,25.99
2023-05-24T12:45:26.040Z,26.02
2023-05-24T12:46:49.465Z,26.04
2023-05-24T12:48:14.696Z,26.03
2023-05-24T12:49:39.392Z,26.00
2023-05-24T12:51:02.292Z,25.96
2023-05-24T12:52:24.771Z,25.88
2023-05-24T12:53:46.660Z,25.79
2023-05-24T12:55:09.686Z,25.69
2023-05-24T12:56:31.607Z,25.58
2023-05-24T12:57:54.675Z,25.47
2023-05-24T12:59:16.662Z,25.43
2023-05-24T13:00:41.923Z,25.41
2023-05-24T13:02:07.300Z,25.37
2023-05-24T13:03:29.284Z,25.31
2023-05-24T13:04:51.321Z,25.27
2023-05-24T13:06:13.365Z,25.25
2023-05-24T13:07:36.208Z,25.25
2023-05-24T13:09:03.466Z,25.22
2023-05-24T13:10:25.395Z,25.22
2023-05-24T13:11:47.377Z,25.22
2023-05-24T13:13:09.514Z,25.22
2023-05-24T13:14:31.386Z,25.19
2023-05-24T13:15:53.613Z,25.18
2023-05-24T13:17:18.170Z,25.17
2023-05-24T13:18:42.933Z,25.12
2023-05-24T13:20:06.680Z,25.09
2023-05-24T13:21:29.541Z,25.05
2023-05-24T13:22:54.127Z,24.98
2023-05-24T13:24:17.460Z,24.97
2023-05-24T13:25:39.585Z,24.99
2023-05-24T13:27:01.612Z,25.03
2023-05-24T13:28:23.465Z,25.09
2023-05-24T13:29:56.448Z,25.14
2023-05-24T13:31:22.235Z,25.21
2023-05-24T13:32:46.246Z,25.30
2023-05-24T13:34:09.325Z,25.35
2023-05-24T13:35:35.835Z,25.39
2023-05-24T13:36:57.475Z,25.40
2023-05-24T13:38:19.336Z,25.39
2023-05-24T13:39:46.024Z,25.39
2023-05-24T13:41:11.018Z,25.42
2023-05-24T13:42:33.224Z,25.45
2023-05-24T13:43:55.056Z,25.49
2023-05-24T13:45:17.285Z,25.53
2023-05-24T13:46:42.597Z,25.55
2023-05-24T13:48:20.306Z,25.53
2023-05-24T13:49:54.606Z,25.46
2023-05-24T13:51:26.255Z,25.41
2023-05-24T13:53:03.073Z,25.34
2023-05-24T13:54:25.194Z,25.26
2023-05-24T13:55:47.326Z,25.20
2023-05-24T13:57:13.267Z,25.14
2023-05-24T13:58:39.830Z,25.11
2023-05-24T14:00:03.654Z,25.09
2023-05-24T14:01:29.458Z,25.07
2023-05-24T14:02:53.919Z,25.04
2023-05-24T14:04:18.209Z,25.02
2023-05-24T14:06:03.444Z,25.02
2023-05-24T14:07:25.540Z,25.05
2023-05-24T14:08:47.520Z,25.10
2023-05-24T14:10:09.915Z,25.13
2023-05-24T14:11:32.681Z,25.09
2023-05-24T14:13:34.185Z,24.96
2023-05-24T14:15:07.787Z,24.67
2023-05-24T14:16:33.291Z,24.53
2023-05-24T14:18:42.455Z,24.48
2023-05-24T14:21:32.529Z,24.46
2023-05-24T14:25:42.394Z,24.56
2023-05-24T14:27:48.654Z,24.47
2023-05-24T14:29:20.524Z,24.35
2023-05-24T14:30:43.452Z,24.35
2023-05-24T14:32:06.550Z,24.25
2023-05-24T14:33:31.524Z,24.07
2023-05-24T14:34:54.776Z,23.90
2023-05-24T14:36:18.390Z,23.75
2023-05-24T14:37:41.036Z,23.68
2023-05-24T14:39:04.791Z,23.64
2023-05-24T14:40:26.898Z,23.59
2023-05-24T14:41:48.820Z,23.52
2023-05-24T14:43:11.060Z,23.40
2023-05-24T14:44:33.085Z,23.29
2023-05-24T14:45:53.952Z,23.17
2023-05-24T14:47:18.818Z,23.05
2023-05-24T14:48:49.087Z,22.89
2023-05-24T14:50:11.285Z,22.72
2023-05-24T14:51:37.678Z,22.57
2023-05-24T14:52:59.730Z,22.51
2023-05-24T14:54:25.070Z,22.49
2023-05-24T15:13:07.351Z,23.14
2023-05-24T15:14:33.382Z,23.14
2023-05-24T15:15:56.933Z,23.09
2023-05-24T15:17:21.554Z,23.07
2023-05-24T15:18:44.517Z,23.06
2023-05-24T15:20:12.724Z,23.06
2023-05-24T15:24:59.813Z,23.04
2023-05-24T15:26:49.533Z,23.03
2023-05-24T15:28:16.217Z,23.04
2023-05-24T15:29:38.730Z,23.03
2023-05-24T15:31:08.620Z,23.00
2023-05-24T15:32:37.046Z,22.98
2023-05-24T15:35:57.037Z,22.84
2023-05-24T15:38:08.683Z,22.73
2023-05-24T15:39:41.188Z,22.52
2023-05-24T15:41:04.169Z,22.44
2023-05-24T15:42:31.475Z,22.37
2023-05-24T15:44:10.194Z,22.27
2023-05-24T15:45:32.456Z,22.20
2023-05-24T15:46:54.808Z,22.15
2023-05-24T15:48:20.179Z,22.07
2023-05-24T15:49:42.841Z,21.95
2023-05-24T15:52:01.090Z,21.85
2023-05-24T15:52:49.335Z,21.77
2023-05-24T15:54:11.460Z,21.66
2023-05-24T15:55:37.141Z,21.55
2023-05-24T15:57:11.683Z,21.45
2023-05-24T15:58:34.579Z,21.33
2023-05-24T15:59:58.209Z,21.22
2023-05-24T16:01:20.610Z,21.13
2023-05-24T16:02:42.773Z,21.03
2023-05-24T16:04:05.200Z,20.93
2023-05-24T16:05:31.154Z,20.83
2023-05-24T16:07:04.796Z,20.72
2023-05-24T16:08:31.233Z,20.62
2023-05-24T16:09:55.702Z,20.56
2023-05-24T16:11:20.274Z,20.47
2023-05-24T16:12:43.660Z,20.39
2023-05-24T16:14:06.428Z,20.32
2023-05-24T16:15:33.452Z,20.24
2023-05-24T16:16:58.575Z,20.15
2023-05-24T16:18:23.524Z,20.10
2023-05-24T16:19:49.795Z,20.03
2023-05-24T16:21:12.017Z,19.97
2023-05-24T16:22:34.805Z,19.91
2023-05-24T16:23:58.389Z,19.86
2023-05-24T16:25:22.142Z,19.82
2023-05-24T16:26:44.509Z,19.77
2023-05-24T16:28:06.393Z,19.74
2023-05-24T16:29:28.282Z,19.69
2023-05-24T16:30:52.555Z,19.66
2023-05-24T16:32:15.543Z,19.61
2023-05-24T16:33:37.786Z,19.57
2023-05-24T16:35:00.187Z,19.53
2023-05-24T16:36:22.075Z,19.49
2023-05-24T16:37:44.238Z,19.46
2023-05-24T16:39:06.601Z,19.43
2023-05-24T16:40:29.784Z,19.38
2023-05-24T16:41:52.819Z,19.35
2023-05-24T16:43:16.306Z,19.29
2023-05-24T16:44:38.869Z,19.24
2023-05-24T16:47:00.213Z,19.22
2023-05-24T16:58:07.756Z,19.01
2023-05-24T17:04:40.896Z,18.88
2023-05-24T17:06:18.296Z,18.85
2023-05-24T17:08:06.182Z,18.83
2023-05-24T17:09:35.601Z,18.78
2023-05-24T17:10:59.057Z,18.75
2023-05-24T17:12:29.073Z,18.72
2023-05-24T17:13:54.363Z,18.68
2023-05-24T17:15:51.476Z,18.65
2023-05-24T17:21:20.830Z,18.53
2023-05-24T17:22:43.063Z,18.49
2023-05-24T17:24:05.274Z,18.47
2023-05-24T17:25:33.074Z,18.44
2023-05-24T17:26:54.843Z,18.41
2023-05-24T17:28:17.088Z,18.37
2023-05-24T17:29:39.173Z,18.32
2023-05-24T17:31:01.894Z,18.30
2023-05-24T17:32:24.323Z,18.27
2023-05-24T17:33:46.281Z,18.22
2023-05-24T17:35:08.472Z,18.19
2023-05-24T17:36:33.810Z,18.16
2023-05-24T17:37:56.281Z,18.14
2023-05-24T17:39:55.176Z,18.08
2023-05-24T17:41:17.088Z,18.05
2023-05-24T17:42:39.423Z,18.01
2023-05-24T17:44:01.449Z,17.97
2023-05-24T17:45:40.757Z,17.95
2023-05-24T17:47:03.211Z,17.92
2023-05-24T17:51:31.578Z,17.83
2023-05-24T17:52:55.212Z,17.78
2023-05-24T17:54:17.684Z,17.73
2023-05-24T17:55:51.821Z,17.70
2023-05-24T18:04:44.131Z,17.45
2023-05-24T18:06:07.690Z,17.41
2023-05-24T18:07:32.121Z,17.36
2023-05-24T18:08:58.261Z,17.31
2023-05-24T18:10:20.832Z,17.27
2023-05-24T18:11:43.112Z,17.23
2023-05-24T18:13:08.714Z,17.19
2023-05-24T18:14:32.245Z,17.14
2023-05-24T18:15:54.356Z,17.10
2023-05-24T18:17:16.224Z,17.07
2023-05-24T18:18:52.195Z,17.03
2023-05-24T18:20:15.409Z,16.98
2023-05-24T18:21:37.682Z,16.95
2023-05-24T18:22:59.789Z,16.92
2023-05-24T18:24:23.334Z,16.87
2023-05-24T18:25:45.642Z,16.85
2023-05-24T18:27:10.339Z,16.81
2023-05-24T18:28:37.746Z,16.76
2023-05-24T18:30:00.135Z,16.73
2023-05-24T18:31:24.019Z,16.70
2023-05-24T18:33:15.602Z,16.66
2023-05-24T18:35:06.835Z,16.62
2023-05-24T18:36:45.156Z,16.57
2023-05-24T18:39:10.313Z,16.52
2023-05-24T18:40:34.127Z,16.47
2023-05-24T18:41:56.893Z,16.44
2023-05-24T18:43:19.205Z,16.40
2023-05-24T18:44:41.484Z,16.36
2023-05-24T18:46:02.237Z,16.33
2023-05-24T18:47:24.276Z,16.30
2023-05-24T18:48:46.612Z,16.27
2023-05-24T18:50:12.429Z,16.24
2023-05-24T18:51:34.495Z,16.22
2023-05-24T18:52:56.311Z,16.18
2023-05-24T18:54:20.422Z,16.16
2023-05-24T18:55:44.265Z,16.13
2023-05-24T18:57:07.354Z,16.10
2023-05-24T18:58:29.596Z,16.07
2023-05-24T18:59:53.465Z,16.04
2023-05-24T19:01:15.382Z,16.01
2023-05-24T19:02:39.225Z,15.98
2023-05-24T19:04:01.541Z,15.94
2023-05-24T19:05:24.150Z,15.92
2023-05-24T19:06:51.267Z,15.89
2023-05-24T19:08:15.573Z,15.86
2023-05-24T19:09:38.184Z,15.84
2023-05-24T19:11:14.671Z,15.80
2023-05-24T19:12:37.982Z,15.79
2023-05-24T19:14:00.533Z,15.77
2023-05-24T19:15:22.964Z,15.73
2023-05-24T19:16:50.845Z,15.71
2023-05-24T19:18:13.152Z,15.68
2023-05-24T19:19:34.868Z,15.67
2023-05-24T19:21:10.577Z,15.65
2023-05-24T19:25:13.819Z,15.59
2023-05-24T19:26:41.860Z,15.57
2023-05-24T19:28:07.372Z,15.55
2023-05-24T19:29:32.670Z,15.52
2023-05-24T19:31:01.308Z,15.50
2023-05-24T19:32:47.874Z,15.48
2023-05-24T19:34:10.027Z,15.45
2023-05-24T19:35:32.379Z,15.43
2023-05-24T19:36:54.592Z,15.41
2023-05-24T19:38:18.086Z,15.41
2023-05-24T19:39:57.128Z,15.38
2023-05-24T19:43:58.862Z,15.34
2023-05-24T19:45:21.172Z,15.32
2023-05-24T19:46:43.986Z,15.31
2023-05-24T19:48:21.788Z,15.29
2023-05-24T19:49:59.329Z,15.27
2023-05-24T19:51:24.453Z,15.26
2023-05-24T19:52:48.247Z,15.26
2023-05-24T19:54:11.588Z,15.24
2023-05-24T19:55:36.692Z,15.22
2023-05-24T19:57:04.422Z,15.21
2023-05-24T19:58:34.586Z,15.20
2023-05-24T20:00:01.614Z,15.18
2023-05-24T20:01:24.176Z,15.16
2023-05-24T20:03:13.994Z,15.15
2023-05-24T20:07:18.943Z,15.12
2023-05-24T20:09:19.016Z,15.10